Nearby METAR Reports

 

KLOM - Philly Wings F, Pennsylvania, USA
Distance from station: SW 6mi, 10km
Updated: 28-Jul-2015 9:15am
Clear
Clear
 Wind from calm
Wind: Calm
Temperature: 81°F , 27°C
Heat Index: 86°F , 30°C
Dew Point: 73°F , 23°C
Humidity: 79%
Barometer: 30.03 inHg , 1016.9 hPa
Clouds: Clear
Visibility: 10 miles , 16 km
2015/07/28 13:15 KLOM 281315Z AUTO 00000KT 10SM CLR 27/23 A3003 RMK AO1
KDYL - Doylestown, Pennsylvania, USA
Distance from station: NNE 10mi, 17km
Updated: 28-Jul-2015 8:54am
Clear
Clear
 Wind from calm
Wind: Calm
Temperature: 77°F , 25°C
Dew Point: 72°F , 22°C
Humidity: 83%
Barometer: 30.03 inHg , 1016.9 hPa
Clouds: Clear
Visibility: 10 miles , 16 km
2015/07/28 12:54 KDYL 281254Z AUTO 00000KT 10SM CLR 25/22 A3003 RMK AO2 SLP164 T02500217
KPNE - Philadelphia/Ne, Pennsylvania, USA
Distance from station: SE 11mi, 18km
Updated: 28-Jul-2015 8:54am
Clear
Clear
 Wind from calm
Wind: Calm
Temperature: 81°F , 27°C
Heat Index: 85°F , 29°C
Dew Point: 70°F , 21°C
Humidity: 70%
Barometer: 30.04 inHg , 1017.3 hPa
Clouds: Clear
Visibility: 7 miles , 11 km
2015/07/28 12:54 KPNE 281254Z AUTO 00000KT 7SM CLR 27/21 A3004 RMK AO2 SLP171 T02720211 TSNO
 
KPTW - Pottstown, Pennsylvania, USA
Distance from station: W 20mi, 32km
Updated: 28-Jul-2015 9:08am
Mist, Overcast
Mist, Overcast
 Wind from calm
Wind: Calm
Temperature: 72°F , 22°C
Dew Point: 72°F , 22°C
Humidity: 100%
Barometer: 30.05 inHg , 1017.6 hPa
Summary: Mist
Clouds: Overcast
Visibility: 3 miles , 5 km
Cloud details: Overcast 200 ft
2015/07/28 13:08 KPTW 281308Z AUTO 00000KT 3SM BR OVC002 22/22 A3005 RMK AO2 T02220222
KTTN - Trenton, New Jersey, USA
Distance from station: ENE 20mi, 32km
Updated: 28-Jul-2015 8:53am
Haze, Clear
Haze, Clear
 Wind from SSW
Wind: SSW 5 mph , 7 km/h
Temperature: 79°F , 26°C
Dew Point: 72°F , 22°C
Humidity: 79%
Barometer: 30.03 inHg , 1016.9 hPa
Summary: Haze
Clouds: Clear
Visibility: 6 miles , 10 km
2015/07/28 12:53 KTTN 281253Z 20004KT 6SM HZ CLR 26/22 A3003 RMK AO2 SLP160 T02560217
KUKT - Quakertown Arp, Pennsylvania, USA
Distance from station: NNW 20mi, 32km
Updated: 28-Jul-2015 9:15am
Clear
Clear
 Wind from calm
Wind: Calm
Temperature: 81°F , 27°C
Heat Index: 85°F , 29°C
Dew Point: 72°F , 22°C
Humidity: 74%
Barometer: 30.05 inHg , 1017.6 hPa
Clouds: Clear
Visibility: 10 miles , 16 km
2015/07/28 13:15 KUKT 281315Z AUTO 00000KT 10SM CLR 27/22 A3005 RMK AO1
 
KPHL - Philadelphia, Pennsylvania, USA
Distance from station: S 22mi, 36km
Updated: 28-Jul-2015 8:54am
Haze, Few clouds
Haze, Few clouds
 Wind from S
Wind: S 5 mph , 7 km/h
Temperature: 81°F , 27°C
Heat Index: 86°F , 30°C
Dew Point: 73°F , 23°C
Humidity: 79%
Barometer: 30.02 inHg , 1016.6 hPa
Summary: Haze
Clouds: Few Clouds
Visibility: 6 miles , 10 km
Cloud details: Few Clouds 1000 ft
2015/07/28 12:54 KPHL 281254Z 17004KT 6SM HZ FEW010 27/23 A3002 RMK AO2 SLP167 T02670228
KVAY - Mount Holly, New Jersey, USA
Distance from station: SE 25mi, 41km
Updated: 28-Jul-2015 8:54am
Clear
Clear
 Wind from calm
Wind: Calm
Temperature: 77°F , 25°C
Dew Point: 72°F , 22°C
Humidity: 83%
Barometer: 30.03 inHg , 1016.9 hPa
Clouds: Clear
Visibility: 7 miles , 11 km
2015/07/28 12:54 KVAY 281254Z AUTO 00000KT 7SM CLR 25/22 A3003 RMK AO2 SLP167 T02500222
KXLL - Allentown Queen, Pennsylvania, USA
Distance from station: NNW 31mi, 49km
Updated: 28-Jul-2015 9:15am
Clear
Clear
 Wind from calm
Wind: Calm
Temperature: 79°F , 26°C
Dew Point: 70°F , 21°C
Humidity: 74%
Barometer: 30.04 inHg , 1017.3 hPa
Clouds: Clear
Visibility: 10 miles , 16 km
2015/07/28 13:15 KXLL 281315Z AUTO 00000KT 10SM CLR 26/21 A3004 RMK AO2
 
KWRI - Wrightst/Mcguire, New Jersey, USA
Distance from station: ESE 34mi, 54km
Updated: 28-Jul-2015 8:58am
Clear
Clear
 Wind from WSW
Wind: WSW 2 mph , 4 km/h
Temperature: 79°F , 26°C
Dew Point: 73°F , 23°C
Humidity: 84%
Barometer: 30.01 inHg , 1016.3 hPa
Clouds: Clear
Visibility: 10 miles , 16 km
2015/07/28 12:58 KWRI 281258Z AUTO 25002KT 10SM CLR 26/23 A3001 RMK AO2 SLP161 T02590233
KABE - Allentown, Pennsylvania, USA
Distance from station: NNW 35mi, 56km
Updated: 28-Jul-2015 8:51am
Clear
Clear
 Wind from calm
Wind: Calm
Temperature: 79°F , 26°C
Dew Point: 70°F , 21°C
Humidity: 74%
Barometer: 30.03 inHg , 1016.9 hPa
Clouds: Clear
Visibility: 7 miles , 11 km
2015/07/28 12:51 KABE 281251Z 00000KT 7SM CLR 26/21 A3003 RMK AO2 SLP167 T02560206
KMQS - Coatesville, Pennsylvania, USA
Distance from station: WSW 39mi, 63km
Updated: 28-Jul-2015 9:15am
Mist, Overcast
Mist, Overcast
 Wind from N
Wind: N 5 mph , 7 km/h
Temperature: 73°F , 23°C
Dew Point: 73°F , 23°C
Humidity: 100%
Barometer: 30.06 inHg , 1017.9 hPa
Summary: Mist
Clouds: Overcast
Visibility: 2 miles , 3 km
Cloud details: Overcast 200 ft
2015/07/28 13:15 KMQS 281315Z AUTO 36004KT 2SM BR OVC002 23/23 A3006 RMK AO2
 
KSMQ - Somerville, New Jersey, USA
Distance from station: NE 40mi, 64km
Updated: 28-Jul-2015 8:53am
Clear
Clear
 Wind from calm
Wind: Calm
Temperature: 79°F , 26°C
Dew Point: 72°F , 22°C
Humidity: 79%
Barometer: 30.00 inHg , 1015.9 hPa
Clouds: Clear
Visibility: 7 miles , 11 km
2015/07/28 12:53 KSMQ 281253Z AUTO 00000KT 7SM CLR 26/22 A3000 RMK AO2 SLP156 T02560217
KILG - Wilmington, Delaware, USA
Distance from station: SSW 42mi, 68km
Updated: 28-Jul-2015 8:51am
Clear
Clear
 Wind from N
Wind: N 3 mph , 6 km/h
Temperature: 81°F , 27°C
Heat Index: 86°F , 30°C
Dew Point: 73°F , 23°C
Humidity: 79%
Barometer: 30.03 inHg , 1016.9 hPa
Clouds: Clear
Visibility: 7 miles , 11 km
2015/07/28 12:51 KILG 281251Z 36003KT 7SM CLR 27/23 A3003 RMK AO2 SLP167 T02670228 $
KRDG - Reading, Pennsylvania, USA
Distance from station: WNW 43mi, 70km
Updated: 28-Jul-2015 8:54am
Haze, Clear
Haze, Clear
 Wind from calm
Wind: Calm
Temperature: 79°F , 26°C
Dew Point: 72°F , 22°C
Humidity: 79%
Barometer: 30.03 inHg , 1016.9 hPa
Summary: Haze
Clouds: Clear
Visibility: 5 miles , 8 km
2015/07/28 12:54 KRDG 281254Z 00000KT 5SM HZ CLR 26/22 A3003 RMK AO2 SLP170 T02610222
 
KNEL - Lakehurst Nas, New Jersey, USA
Distance from station: ESE 46mi, 74km
Updated: 28-Jul-2015 9:00am
Few Clouds
Few Clouds
 Wind from calm
Wind: Calm
Temperature: 79°F , 26°C
Dew Point: 73°F , 23°C
Humidity: 84%
Barometer: 30.02 inHg , 1016.6 hPa
Clouds: Few Clouds
Visibility: 10 miles , 16 km
Cloud details: Few Clouds 1000 ft
2015/07/28 13:00 KNEL 281300Z AUTO 00000KT 10SM FEW010 26/23 A3002 RMK AO2 SLP164 T02610228
KMJX - Toms River, New Jersey, USA
Distance from station: ESE 50mi, 80km
Updated: 28-Jul-2015 9:15am
Few Clouds
Few Clouds
 Wind from calm
Wind: Calm
Temperature: 81°F , 27°C
Heat Index: 86°F , 30°C
Dew Point: 73°F , 23°C
Humidity: 79%
Barometer: 30.02 inHg , 1016.6 hPa
Clouds: Few Clouds
Visibility: 10 miles , 16 km
Cloud details: Few Clouds 1100 ft
2015/07/28 13:15 KMJX 281315Z AUTO 00000KT 10SM FEW011 27/23 A3002 RMK AO1